Time;durP1;ratioP1;P1;durP2;ratioP2;P2;SDS_P1;SDS_P2;PMS_P1;PMS_P2;Temp;Humidity;BMP_temperature;BMP_pressure;BME280_temperature;BME280_humidity;BME280_pressure;Samples;Min_cycle;Max_cycle;Signal;HPM_P1;HPM_P2
2021/11/15 00:01:56;;;;;;;;;;;;;;;17.63;100.00;102592.91;5055482;28;19921;-58
2021/11/15 00:04:22;;;;;;;;;;;;;;;17.65;100.00;102585.44;5055370;28;19928;-59
2021/11/15 00:06:47;;;;;;;;;;;;;;;17.60;100.00;102586.03;5055510;28;19920;-57
2021/11/15 00:09:13;;;;;;;;;;;;;;;17.59;100.00;102587.09;5054390;28;20284;-58
2021/11/15 00:11:38;;;;;;;;;;;;;;;17.46;100.00;102581.59;5054781;28;19984;-54
2021/11/15 00:14:04;;;;;;;;;;;;;;;17.46;100.00;102592.41;5055695;28;20272;-58
2021/11/15 00:16:30;;;;;;;;;;;;;;;17.60;100.00;102582.50;5054980;28;19924;-58
2021/11/15 00:18:56;;;;;;;;;;;;;;;17.45;100.00;102579.91;5054702;28;20361;-58
2021/11/15 00:21:21;;;;;;;;;;;;;;;17.41;100.00;102573.25;5054846;28;19916;-58
2021/11/15 00:23:47;;;;;;;;;;;;;;;17.45;100.00;102572.66;5055123;28;19970;-58
2021/11/15 00:26:12;;;;;;;;;;;;;;;17.58;100.00;102573.75;5055088;28;20420;-58
2021/11/15 00:28:38;;;;;;;;;;;;;;;17.57;100.00;102572.06;5054904;28;20444;-61
2021/11/15 00:31:04;;;;;;;;;;;;;;;17.43;100.00;102565.75;5056097;28;19921;-58
2021/11/15 00:33:29;;;;;;;;;;;;;;;17.50;100.00;102566.63;5055329;28;20265;-58
2021/11/15 00:35:55;;;;;;;;;;;;;;;17.38;100.00;102562.81;5055632;28;20418;-58
2021/11/15 00:38:20;;;;;;;;;;;;;;;17.41;100.00;102565.94;5056151;28;19921;-59
2021/11/15 00:40:46;;;;;;;;;;;;;;;17.45;100.00;102563.69;5089011;28;19917;-58
2021/11/15 00:43:11;;;;;;;;;;;;;;;17.36;100.00;102560.31;5055728;28;20276;-58
2021/11/15 00:45:38;;;;;;;;;;;;;;;17.31;100.00;102563.63;5055324;28;19928;-57
2021/11/15 00:48:04;;;;;;;;;;;;;;;17.23;100.00;102561.06;5055128;28;19928;-58
2021/11/15 00:50:29;;;;;;;;;;;;;;;17.25;100.00;102567.09;5054797;28;19916;-57
2021/11/15 00:52:55;;;;;;;;;;;;;;;17.14;100.00;102556.84;5055072;28;19917;-57
2021/11/15 00:55:20;;;;;;;;;;;;;;;16.90;100.00;102554.34;5055186;28;19939;-58
2021/11/15 00:57:46;;;;;;;;;;;;;;;16.77;100.00;102562.38;5054626;28;20288;-59
2021/11/15 01:00:13;;;;;;;;;;;;;;;16.87;100.00;102562.03;5054645;28;19916;-58
2021/11/15 01:02:39;;;;;;;;;;;;;;;16.70;100.00;102561.44;5054523;28;19920;-57
2021/11/15 01:05:04;;;;;;;;;;;;;;;16.86;100.00;102561.19;5053931;28;19926;-58
2021/11/15 01:07:30;;;;;;;;;;;;;;;17.13;100.00;102568.69;5054110;28;19925;-57
2021/11/15 01:09:55;;;;;;;;;;;;;;;17.08;100.00;102563.88;5054155;28;19967;-58
2021/11/15 01:12:21;;;;;;;;;;;;;;;17.10;100.00;102561.81;5054119;28;19917;-58
2021/11/15 01:14:46;;;;;;;;;;;;;;;17.20;100.00;102561.47;5053880;28;19920;-58
2021/11/15 01:17:12;;;;;;;;;;;;;;;17.13;100.00;102555.19;5054303;28;19962;-49
2021/11/15 01:19:37;;;;;;;;;;;;;;;17.05;100.00;102554.28;5086757;28;19968;-53
2021/11/15 01:22:03;;;;;;;;;;;;;;;17.13;100.00;102552.47;5053221;28;20027;-52
2021/11/15 01:24:28;;;;;;;;;;;;;;;17.11;100.00;102552.66;5070257;28;19931;-52
2021/11/15 01:26:53;;;;;;;;;;;;;;;17.06;100.00;102550.53;5054397;28;19916;-48
2021/11/15 01:29:19;;;;;;;;;;;;;;;17.05;100.00;102554.28;5055508;28;19916;-51
2021/11/15 01:31:44;;;;;;;;;;;;;;;16.92;100.00;102552.28;5054206;28;20399;-49
2021/11/15 01:34:10;;;;;;;;;;;;;;;16.91;100.00;102557.91;5053243;28;19999;-52
2021/11/15 01:36:35;;;;;;;;;;;;;;;16.85;100.00;102556.00;5054177;28;20311;-49
2021/11/15 01:39:03;;;;;;;;;;;;;;;16.85;100.00;102561.41;5054411;28;19927;-49
2021/11/15 01:41:28;;;;;;;;;;;;;;;16.71;100.00;102563.13;5054173;28;19971;-51
2021/11/15 01:43:53;;;;;;;;;;;;;;;16.57;100.00;102563.03;5054220;28;19967;-51
2021/11/15 01:46:19;;;;;;;;;;;;;;;16.73;100.00;102561.91;5086269;28;19928;-50
2021/11/15 01:48:44;;;;;;;;;;;;;;;16.78;100.00;102562.16;5052737;28;19967;-48
2021/11/15 01:51:10;;;;;;;;;;;;;;;16.83;100.00;102556.19;5054247;28;19913;-51
2021/11/15 01:53:36;;;;;;;;;;;;;;;17.03;100.00;102556.34;5086003;28;19920;-55
2021/11/15 01:56:03;;;;;;;;;;;;;;;16.85;100.00;102561.41;5054425;28;20254;-53
2021/11/15 01:58:28;;;;;;;;;;;;;;;16.96;100.00;102555.44;5053896;28;19973;-51
2021/11/15 02:00:58;;;;;;;;;;;;;;;16.97;100.00;102562.50;5052747;28;19913;-52
2021/11/15 02:03:25;;;;;;;;;;;;;;;16.92;100.00;102549.59;5086392;28;19916;-54
2021/11/15 02:05:51;;;;;;;;;;;;;;;16.95;100.00;102552.91;5086009;28;19982;-54
2021/11/15 02:08:16;;;;;;;;;;;;;;;17.06;100.00;102555.13;5053968;28;20412;-50
2021/11/15 02:10:42;;;;;;;;;;;;;;;16.85;100.00;102548.72;5053578;28;19917;-50
2021/11/15 02:13:08;;;;;;;;;;;;;;;17.01;100.00;102552.19;5069037;28;19921;-53
2021/11/15 02:15:34;;;;;;;;;;;;;;;17.07;100.00;102551.41;5069230;28;20280;-48
2021/11/15 02:18:00;;;;;;;;;;;;;;;16.84;100.00;102551.59;5052783;28;20333;-51
2021/11/15 02:20:26;;;;;;;;;;;;;;;16.98;100.00;102545.31;5054087;28;19920;-48
2021/11/15 02:22:52;;;;;;;;;;;;;;;16.97;100.00;102545.47;5052175;28;19917;-50
2021/11/15 02:25:19;;;;;;;;;;;;;;;16.91;100.00;102542.50;5053777;28;19925;-49
2021/11/15 02:27:45;;;;;;;;;;;;;;;16.81;100.00;102541.19;5052285;28;20410;-48
2021/11/15 02:30:12;;;;;;;;;;;;;;;16.89;100.00;102538.34;5054222;28;19917;-50
2021/11/15 02:32:37;;;;;;;;;;;;;;;16.86;100.00;102533.34;5053856;28;19923;-49
2021/11/15 02:35:03;;;;;;;;;;;;;;;16.83;100.00;102531.00;5054384;28;20023;-51
2021/11/15 02:37:29;;;;;;;;;;;;;;;16.70;100.00;102529.03;5052385;28;19956;-50
2021/11/15 02:39:54;;;;;;;;;;;;;;;16.83;100.00;102533.72;5053792;28;20007;-54
2021/11/15 02:42:19;;;;;;;;;;;;;;;16.61;100.00;102531.06;5053280;28;19920;-49
2021/11/15 02:44:45;;;;;;;;;;;;;;;16.58;100.00;102532.28;5053298;28;20406;-52
2021/11/15 02:47:10;;;;;;;;;;;;;;;16.53;100.00;102523.09;5053769;28;19920;-51
2021/11/15 02:49:36;;;;;;;;;;;;;;;16.37;100.00;102521.50;5053492;28;20051;-52
2021/11/15 02:52:01;;;;;;;;;;;;;;;16.39;100.00;102514.88;5085793;28;19959;-49
2021/11/15 02:54:26;;;;;;;;;;;;;;;16.41;100.00;102517.38;5086224;28;20438;-52
2021/11/15 02:56:52;;;;;;;;;;;;;;;16.21;100.00;102518.00;5069136;28;19917;-49
2021/11/15 02:59:18;;;;;;;;;;;;;;;16.39;100.00;102516.72;5053063;28;20268;-49
2021/11/15 03:01:47;;;;;;;;;;;;;;;16.43;100.00;102524.25;5052171;28;20022;-51
2021/11/15 03:04:15;;;;;;;;;;;;;;;16.82;100.00;102522.09;5053038;28;19923;-52
2021/11/15 03:06:41;;;;;;;;;;;;;;;16.77;100.00;102525.38;5056204;28;19917;-49
2021/11/15 03:09:07;;;;;;;;;;;;;;;16.72;100.00;102516.16;5057146;28;19979;-50
2021/11/15 03:11:33;;;;;;;;;;;;;;;16.77;100.00;102513.75;5056833;28;20346;-51
2021/11/15 03:13:58;;;;;;;;;;;;;;;16.59;100.00;102511.50;5056818;28;20019;-52
2021/11/15 03:16:23;;;;;;;;;;;;;;;16.53;100.00;102512.28;5057070;28;19916;-50
2021/11/15 03:18:49;;;;;;;;;;;;;;;16.72;100.00;102517.03;5056873;28;19916;-52
2021/11/15 03:21:21;;;;;;;;;;;;;;;16.76;100.00;102521.00;5056755;28;19917;-52
2021/11/15 03:23:49;;;;;;;;;;;;;;;16.70;100.00;102515.53;5055471;28;19928;-49
2021/11/15 03:26:14;;;;;;;;;;;;;;;16.60;100.00;102522.13;5056977;28;19916;-51
2021/11/15 03:28:41;;;;;;;;;;;;;;;16.58;100.00;102520.63;5056522;28;19923;-54
2021/11/15 03:31:09;;;;;;;;;;;;;;;16.81;100.00;102525.81;5056419;28;19917;-55
2021/11/15 03:33:35;;;;;;;;;;;;;;;16.65;100.00;102523.38;5056646;28;20011;-54
2021/11/15 03:36:01;;;;;;;;;;;;;;;16.48;100.00;102520.97;5057310;28;19921;-48
2021/11/15 03:38:27;;;;;;;;;;;;;;;16.52;100.00;102519.56;5056399;28;19920;-53
2021/11/15 03:40:53;;;;;;;;;;;;;;;16.46;100.00;102517.63;5057007;28;20360;-53
2021/11/15 03:43:18;;;;;;;;;;;;;;;16.84;100.00;102524.56;5089342;28;20271;-53
2021/11/15 03:45:44;;;;;;;;;;;;;;;16.83;100.00;102523.75;5057103;28;19969;-55
2021/11/15 03:48:10;;;;;;;;;;;;;;;16.67;100.00;102518.63;5057507;28;19916;-52
2021/11/15 03:50:36;;;;;;;;;;;;;;;16.67;100.00;102519.47;5090434;28;19998;-55
2021/11/15 03:53:03;;;;;;;;;;;;;;;16.66;100.00;102516.97;5057523;28;19917;-50
2021/11/15 03:55:29;;;;;;;;;;;;;;;16.75;100.00;102522.03;5057123;28;19916;-53
2021/11/15 03:57:54;;;;;;;;;;;;;;;16.43;100.00;102518.00;5055374;28;20288;-52
2021/11/15 04:00:21;;;;;;;;;;;;;;;16.44;100.00;102530.47;5089105;28;19917;-51
2021/11/15 04:02:50;;;;;;;;;;;;;;;16.64;100.00;102541.47;5056092;28;19917;-54
2021/11/15 04:05:26;;;;;;;;;;;;;;;16.63;100.00;102537.09;5056403;28;19916;-50
2021/11/15 04:07:52;;;;;;;;;;;;;;;16.50;100.00;102535.13;5055005;28;19916;-52
2021/11/15 04:10:22;;;;;;;;;;;;;;;16.41;100.00;102534.41;5055710;28;20455;-50
2021/11/15 04:12:48;;;;;;;;;;;;;;;16.20;100.00;102535.22;5056233;28;19963;-52
2021/11/15 04:15:14;;;;;;;;;;;;;;;16.57;100.00;102535.16;5088619;28;19967;-47
2021/11/15 04:17:40;;;;;;;;;;;;;;;16.53;100.00;102537.44;5055679;28;19917;-53
2021/11/15 04:20:10;;;;;;;;;;;;;;;16.56;100.00;102531.66;5088447;28;20249;-51
2021/11/15 04:22:36;;;;;;;;;;;;;;;16.62;100.00;102533.56;5054709;28;19940;-51
2021/11/15 04:25:05;;;;;;;;;;;;;;;16.52;100.00;102529.50;5054457;28;20296;-54
2021/11/15 04:27:31;;;;;;;;;;;;;;;16.60;100.00;102524.81;5055460;28;20365;-50
2021/11/15 04:29:56;;;;;;;;;;;;;;;16.57;100.00;102529.75;5054227;28;19919;-51
2021/11/15 04:32:22;;;;;;;;;;;;;;;16.55;100.00;102531.81;5088096;28;19920;-53
2021/11/15 04:34:47;;;;;;;;;;;;;;;16.47;100.00;102533.63;5054596;28;19924;-53
2021/11/15 04:37:13;;;;;;;;;;;;;;;16.54;100.00;102530.16;5055622;28;19921;-52
2021/11/15 04:39:38;;;;;;;;;;;;;;;16.58;100.00;102536.84;5055927;28;19931;-51
2021/11/15 04:42:04;;;;;;;;;;;;;;;16.58;100.00;102534.13;5055889;28;19968;-52
2021/11/15 04:44:29;;;;;;;;;;;;;;;16.45;100.00;102537.56;5087736;28;19920;-55
2021/11/15 04:46:55;;;;;;;;;;;;;;;16.43;100.00;102534.22;5055193;28;19920;-57
2021/11/15 04:49:20;;;;;;;;;;;;;;;16.47;100.00;102533.63;5053878;28;19928;-52
2021/11/15 04:51:46;;;;;;;;;;;;;;;16.49;100.00;102530.72;5087354;28;20350;-51
2021/11/15 04:54:13;;;;;;;;;;;;;;;16.45;100.00;102537.56;5055006;28;19975;-51
2021/11/15 04:56:39;;;;;;;;;;;;;;;16.55;100.00;102534.53;5055352;28;20011;-49
2021/11/15 04:59:04;;;;;;;;;;;;;;;16.51;100.00;102536.78;5055603;28;19951;-54
2021/11/15 05:01:30;;;;;;;;;;;;;;;16.53;100.00;102540.13;5054756;28;19920;-54
2021/11/15 05:03:55;;;;;;;;;;;;;;;16.59;100.00;102541.19;5054843;28;19921;-51
2021/11/15 05:06:22;;;;;;;;;;;;;;;16.61;100.00;102541.88;5054724;28;20397;-52
2021/11/15 05:08:47;;;;;;;;;;;;;;;16.57;100.00;102535.16;5054717;28;19921;-53
2021/11/15 05:11:13;;;;;;;;;;;;;;;16.52;100.00;102540.31;5054683;28;20276;-53
2021/11/15 05:13:38;;;;;;;;;;;;;;;16.60;100.00;102538.31;5054851;28;20272;-51
2021/11/15 05:16:04;;;;;;;;;;;;;;;16.57;100.00;102549.50;5054520;28;19932;-51
2021/11/15 05:18:29;;;;;;;;;;;;;;;16.51;100.00;102536.78;5053505;28;19920;-54
2021/11/15 05:20:54;;;;;;;;;;;;;;;16.51;100.00;102541.34;5053128;28;19928;-54
2021/11/15 05:23:20;;;;;;;;;;;;;;;16.48;100.00;102542.56;5054292;28;19924;-51
2021/11/15 05:25:45;;;;;;;;;;;;;;;16.53;100.00;102544.69;5054822;28;20015;-52
2021/11/15 05:28:10;;;;;;;;;;;;;;;16.52;100.00;102551.13;5086392;28;20404;-53
2021/11/15 05:30:36;;;;;;;;;;;;;;;16.66;100.00;102539.41;5069586;28;19916;-52
2021/11/15 05:33:01;;;;;;;;;;;;;;;16.51;100.00;102547.59;5054425;28;19927;-51
2021/11/15 05:35:27;;;;;;;;;;;;;;;16.46;100.00;102545.47;5052893;28;19917;-51
2021/11/15 05:37:53;;;;;;;;;;;;;;;16.64;100.00;102536.06;5053931;28;19952;-55
2021/11/15 05:40:19;;;;;;;;;;;;;;;16.52;100.00;102537.63;5053870;28;19920;-51
2021/11/15 05:42:45;;;;;;;;;;;;;;;16.61;100.00;102534.59;5052821;28;19924;-53
2021/11/15 05:45:10;;;;;;;;;;;;;;;16.41;100.00;102542.53;5053993;28;19967;-52
2021/11/15 05:47:36;;;;;;;;;;;;;;;16.42;100.00;102546.88;5086186;28;20341;-53
2021/11/15 05:50:02;;;;;;;;;;;;;;;16.37;100.00;102545.78;5054147;28;20361;-55
2021/11/15 05:52:29;;;;;;;;;;;;;;;16.37;100.00;102538.50;5052863;28;19917;-50
2021/11/15 05:54:54;;;;;;;;;;;;;;;16.33;100.00;102535.38;5054371;28;19923;-51
2021/11/15 05:57:20;;;;;;;;;;;;;;;16.30;100.00;102535.78;5054034;28;19916;-49
2021/11/15 05:59:45;;;;;;;;;;;;;;;16.25;100.00;102534.66;5052474;28;19928;-52
2021/11/15 06:02:10;;;;;;;;;;;;;;;16.41;100.00;102537.13;5086220;28;19974;-50
2021/11/15 06:04:36;;;;;;;;;;;;;;;16.44;100.00;102525.94;5053769;28;20361;-51
2021/11/15 06:07:01;;;;;;;;;;;;;;;16.31;100.00;102531.19;5053681;28;19917;-48
2021/11/15 06:09:27;;;;;;;;;;;;;;;16.34;100.00;102533.50;5086048;28;19971;-49
2021/11/15 06:11:53;;;;;;;;;;;;;;;16.43;100.00;102537.75;5054215;28;19917;-48
2021/11/15 06:14:18;;;;;;;;;;;;;;;16.41;100.00;102539.81;5052655;28;19948;-48
2021/11/15 06:16:44;;;;;;;;;;;;;;;16.47;100.00;102541.75;5053548;28;19913;-52
2021/11/15 06:19:09;;;;;;;;;;;;;;;16.44;100.00;102547.53;5053592;28;19920;-52
2021/11/15 06:21:34;;;;;;;;;;;;;;;16.36;100.00;102544.94;5086692;28;19920;-55
2021/11/15 06:24:01;;;;;;;;;;;;;;;16.34;100.00;102553.25;5053648;28;20254;-50
2021/11/15 06:26:27;;;;;;;;;;;;;;;16.23;100.00;102550.22;5053497;28;19920;-51
2021/11/15 06:28:53;;;;;;;;;;;;;;;16.31;100.00;102552.78;5052960;28;20307;-54
2021/11/15 06:31:19;;;;;;;;;;;;;;;16.35;100.00;102556.78;5053299;28;20011;-54
2021/11/15 06:33:49;;;;;;;;;;;;;;;16.29;100.00;102557.53;5053393;28;19955;-51
2021/11/15 06:36:14;;;;;;;;;;;;;;;16.19;100.00;102561.41;5053651;28;20022;-51
2021/11/15 06:38:40;;;;;;;;;;;;;;;16.45;100.00;102560.00;5053356;28;20436;-50
2021/11/15 06:41:05;;;;;;;;;;;;;;;16.44;100.00;102563.72;5054758;28;19920;-48
2021/11/15 06:43:31;;;;;;;;;;;;;;;16.48;100.00;102562.31;5057403;28;20275;-53
2021/11/15 06:45:56;;;;;;;;;;;;;;;16.44;100.00;102558.34;5057671;28;19940;-54
2021/11/15 06:48:21;;;;;;;;;;;;;;;16.46;100.00;102568.91;5057206;28;19929;-53
2021/11/15 06:50:49;;;;;;;;;;;;;;;16.32;100.00;102571.50;5057506;28;19931;-50
2021/11/15 06:53:14;;;;;;;;;;;;;;;16.31;100.00;102567.13;5057202;28;19912;-50
2021/11/15 06:55:39;;;;;;;;;;;;;;;16.15;100.00;102564.66;5057426;28;20003;-55
2021/11/15 06:58:05;;;;;;;;;;;;;;;16.36;100.00;102569.25;5057379;28;19920;-53
2021/11/15 07:00:30;;;;;;;;;;;;;;;16.19;100.00;102569.50;5057549;28;20409;-50
2021/11/15 07:02:56;;;;;;;;;;;;;;;15.89;100.00;102564.16;5056891;28;19916;-51
2021/11/15 07:05:21;;;;;;;;;;;;;;;15.98;100.00;102570.28;5057329;28;19917;-50
2021/11/15 07:07:48;;;;;;;;;;;;;;;16.28;100.00;102566.66;5056868;28;19912;-53
2021/11/15 07:10:15;;;;;;;;;;;;;;;16.51;100.00;102568.34;5057492;28;20356;-52
2021/11/15 07:12:41;;;;;;;;;;;;;;;16.43;100.00;102574.72;5056415;28;19940;-53
2021/11/15 07:15:07;;;;;;;;;;;;;;;16.53;100.00;102574.41;5055684;28;20373;-52
2021/11/15 07:17:33;;;;;;;;;;;;;;;16.41;100.00;102568.66;5089811;28;20337;-51
2021/11/15 07:19:58;;;;;;;;;;;;;;;16.19;100.00;102566.81;5056279;28;19968;-50
2021/11/15 07:22:24;;;;;;;;;;;;;;;16.28;100.00;102566.66;5056728;28;19967;-49
2021/11/15 07:24:49;;;;;;;;;;;;;;;16.22;100.00;102570.97;5056869;28;19942;-50
2021/11/15 07:27:15;;;;;;;;;;;;;;;16.19;100.00;102572.19;5089695;28;19963;-54
2021/11/15 07:29:40;;;;;;;;;;;;;;;16.05;100.00;102567.66;5089308;28;19921;-54
2021/11/15 07:32:10;;;;;;;;;;;;;;;16.17;100.00;102571.56;5089337;28;20257;-53
2021/11/15 07:34:36;;;;;;;;;;;;;;;16.05;100.00;102570.38;5056858;28;19920;-52
2021/11/15 07:37:01;;;;;;;;;;;;;;;15.99;100.00;102563.03;5056456;28;19912;-55
2021/11/15 07:39:27;;;;;;;;;;;;;;;15.97;100.00;102563.22;5055975;28;19917;-53
2021/11/15 07:41:52;;;;;;;;;;;;;;;16.02;100.00;102565.34;5087669;28;19921;-53
2021/11/15 07:44:18;;;;;;;;;;;;;;;15.96;100.00;102568.81;5055217;28;19921;-50
2021/11/15 07:46:43;;;;;;;;;;;;;;;15.88;100.00;102567.88;5054054;28;19921;-51
2021/11/15 07:49:09;;;;;;;;;;;;;;;16.07;100.00;102578.28;5055198;28;19944;-54
2021/11/15 07:51:34;;;;;;;;;;;;;;;16.01;100.00;102572.59;5054925;28;19916;-54
2021/11/15 07:54:00;;;;;;;;;;;;;;;16.04;100.00;102579.50;5054920;28;20270;-52
2021/11/15 07:56:25;;;;;;;;;;;;;;;16.02;100.00;102568.88;5055002;28;19978;-50
2021/11/15 07:58:50;;;;;;;;;;;;;;;15.92;100.00;102571.03;5070807;28;19932;-51
2021/11/15 08:01:16;;;;;;;;;;;;;;;16.11;100.00;102575.00;5054357;28;19920;-51
2021/11/15 08:03:42;;;;;;;;;;;;;;;15.98;100.00;102569.47;5054860;28;20328;-51
2021/11/15 08:06:10;;;;;;;;;;;;;;;15.89;100.00;102572.25;5087373;28;19956;-57
2021/11/15 08:08:35;;;;;;;;;;;;;;;15.66;100.00;102575.03;5053657;28;20007;-53
2021/11/15 08:11:01;;;;;;;;;;;;;;;15.85;100.00;102570.94;5087255;28;20041;-53
2021/11/15 08:13:27;;;;;;;;;;;;;;;15.75;100.00;102573.09;5054546;28;20369;-52
2021/11/15 08:15:52;;;;;;;;;;;;;;;16.00;100.00;102572.81;5086805;28;19921;-50
2021/11/15 08:18:18;;;;;;;;;;;;;;;15.87;100.00;102571.56;5086723;28;19916;-49
2021/11/15 08:20:45;;;;;;;;;;;;;;;15.65;100.00;102577.91;5054318;28;20292;-53
2021/11/15 08:23:13;;;;;;;;;;;;;;;15.60;100.00;102576.63;5054722;28;20010;-53
2021/11/15 08:25:38;;;;;;;;;;;;;;;15.84;100.00;102580.03;5054538;28;19920;-52
2021/11/15 08:28:04;;;;;;;;;;;;;;;16.09;100.00;102571.66;5054260;28;19924;-53
2021/11/15 08:30:30;;;;;;;;;;;;;;;16.07;100.00;102572.88;5054801;28;20425;-52
2021/11/15 08:32:56;;;;;;;;;;;;;;;15.92;100.00;102565.66;5054427;28;19958;-55
2021/11/15 08:35:23;;;;;;;;;;;;;;;16.13;100.00;102561.31;5054820;28;20341;-53
2021/11/15 08:38:04;;;;;;;;;;;;;;;16.37;100.00;102565.50;5053466;28;19927;-52
2021/11/15 08:40:29;;;;;;;;;;;;;;;16.29;100.00;102561.09;5016656;28;1103282;-54
2021/11/15 08:42:55;;;;;;;;;;;;;;;16.20;100.00;102560.38;5070832;28;20246;-52
2021/11/15 08:45:20;;;;;;;;;;;;;;;16.28;100.00;102558.56;5055659;28;20276;-52
2021/11/15 08:47:46;;;;;;;;;;;;;;;16.22;100.00;102564.75;5054940;28;19921;-50
2021/11/15 08:50:11;;;;;;;;;;;;;;;16.45;100.00;102560.00;5054898;28;20404;-53
2021/11/15 08:52:37;;;;;;;;;;;;;;;16.44;100.00;102561.03;5055013;28;20305;-54
2021/11/15 08:55:03;;;;;;;;;;;;;;;16.49;100.00;102571.22;5055208;28;20361;-53
2021/11/15 08:57:28;;;;;;;;;;;;;;;16.52;100.00;102567.31;5087212;28;20388;-54
2021/11/15 08:59:55;;;;;;;;;;;;;;;16.47;100.00;102574.16;5070974;28;19916;-53
2021/11/15 09:02:21;;;;;;;;;;;;;;;16.49;100.00;102571.22;5086366;28;19998;-54
2021/11/15 09:04:46;;;;;;;;;;;;;;;16.41;100.00;102574.91;5053896;28;19951;-51
2021/11/15 09:07:12;;;;;;;;;;;;;;;16.26;100.00;102566.88;5054765;28;19917;-54
2021/11/15 09:09:38;;;;;;;;;;;;;;;16.26;100.00;102572.28;5053187;28;19962;-54
2021/11/15 09:12:06;;;;;;;;;;;;;;;16.31;100.00;102564.44;5053386;28;19939;-51
2021/11/15 09:14:31;;;;;;;;;;;;;;;16.25;100.00;102564.34;5054379;28;19924;-53
2021/11/15 09:16:57;;;;;;;;;;;;;;;16.06;100.00;102566.63;5053197;28;19917;-54
2021/11/15 09:19:23;;;;;;;;;;;;;;;16.27;100.00;102570.41;5053451;28;20372;-52
2021/11/15 09:21:48;;;;;;;;;;;;;;;15.91;100.00;102559.44;5053409;28;19913;-56
2021/11/15 09:24:14;;;;;;;;;;;;;;;16.08;100.00;102567.28;5086869;28;19955;-53
2021/11/15 09:26:40;;;;;;;;;;;;;;;16.08;100.00;102561.88;5069595;28;20363;-55
2021/11/15 09:29:06;;;;;;;;;;;;;;;16.06;100.00;102555.84;5086473;28;19917;-53
2021/11/15 09:31:31;;;;;;;;;;;;;;;15.90;100.00;102557.72;5054297;28;19921;-53
2021/11/15 09:33:57;;;;;;;;;;;;;;;15.91;100.00;102564.81;5054963;28;20326;-52
2021/11/15 09:36:24;;;;;;;;;;;;;;;16.16;100.00;102564.50;5054259;28;19928;-51
2021/11/15 09:38:51;;;;;;;;;;;;;;;16.23;100.00;102577.22;5053561;28;19931;-53
2021/11/15 09:41:16;;;;;;;;;;;;;;;16.00;100.00;102572.81;5086577;28;19916;-53
2021/11/15 09:43:42;;;;;;;;;;;;;;;16.17;100.00;102563.47;5052385;28;19920;-56
2021/11/15 09:46:12;;;;;;;;;;;;;;;16.25;100.00;102572.44;5053821;28;20017;-54
2021/11/15 09:48:39;;;;;;;;;;;;;;;16.09;100.00;102577.06;5054155;28;19924;-50
2021/11/15 09:51:06;;;;;;;;;;;;;;;16.10;100.00;102570.63;5054089;28;19920;-51
2021/11/15 09:53:31;;;;;;;;;;;;;;;15.93;100.00;102569.19;5052550;28;19997;-49
2021/11/15 09:55:57;;;;;;;;;;;;;;;16.15;100.00;102570.06;5053686;28;20011;-50
2021/11/15 09:58:23;;;;;;;;;;;;;;;16.03;100.00;102564.31;5054752;28;19970;-54
2021/11/15 10:00:48;;;;;;;;;;;;;;;15.84;100.00;102568.44;5053726;28;20265;-50
2021/11/15 10:03:15;;;;;;;;;;;;;;;16.11;100.00;102569.59;5053773;28;19924;-49
2021/11/15 10:05:40;;;;;;;;;;;;;;;16.03;100.00;102562.47;5053988;28;19917;-52
2021/11/15 10:08:09;;;;;;;;;;;;;;;16.12;100.00;102565.88;5053615;28;20436;-54
2021/11/15 10:10:38;;;;;;;;;;;;;;;15.97;100.00;102573.19;5085105;28;20016;-53
2021/11/15 10:13:21;;;;;;;;;;;;;;;15.68;100.00;102564.06;5054005;28;19916;-55
2021/11/15 10:15:51;;;;;;;;;;;;;;;15.99;100.00;102560.34;5053754;28;19920;-54
2021/11/15 10:18:40;;;;;;;;;;;;;;;15.99;100.00;102569.25;5053690;28;20375;-49
2021/11/15 10:21:16;;;;;;;;;;;;;;;15.85;100.00;102576.31;5050966;28;19924;-50
2021/11/15 10:23:54;;;;;;;;;;;;;;;16.04;100.00;102572.25;5054142;28;20383;-51
2021/11/15 10:26:29;;;;;;;;;;;;;;;16.12;100.00;102565.06;5053648;28;19990;-52
2021/11/15 10:28:56;;;;;;;;;;;;;;;16.17;100.00;102558.06;5052789;28;20358;-48
2021/11/15 10:31:24;;;;;;;;;;;;;;;16.03;100.00;102556.22;5053372;28;19913;-51
2021/11/15 10:33:50;;;;;;;;;;;;;;;16.14;100.00;102547.63;5053383;28;19924;-54
2021/11/15 10:36:15;;;;;;;;;;;;;;;15.97;100.00;102543.50;5053690;28;20233;-51
2021/11/15 10:38:50;;;;;;;;;;;;;;;16.20;100.00;102544.19;5053436;28;19956;-51
2021/11/15 10:41:17;;;;;;;;;;;;;;;15.96;100.00;102555.31;5053118;28;19921;-52
2021/11/15 10:43:44;;;;;;;;;;;;;;;16.16;100.00;102556.38;5053194;28;19924;-49
2021/11/15 10:46:27;;;;;;;;;;;;;;;16.14;100.00;102558.41;5053382;28;19920;-49
2021/11/15 10:48:55;;;;;;;;;;;;;;;15.85;100.00;102560.13;5086030;28;20369;-51
2021/11/15 10:51:39;;;;;;;;;;;;;;;15.97;100.00;102562.38;5053208;28;19920;-51
2021/11/15 10:54:26;;;;;;;;;;;;;;;16.15;100.00;102565.50;5053638;28;20015;-59
2021/11/15 10:56:54;;;;;;;;;;;;;;;16.16;100.00;102571.72;5053245;28;19916;-51
2021/11/15 10:59:19;;;;;;;;;;;;;;;16.23;100.00;102566.41;5052053;28;19927;-53
2021/11/15 11:01:45;;;;;;;;;;;;;;;15.97;100.00;102560.50;5052958;28;19920;-53
2021/11/15 11:04:11;;;;;;;;;;;;;;;15.90;100.00;102562.31;5068786;28;19960;-51
2021/11/15 11:06:56;;;;;;;;;;;;;;;15.85;100.00;102560.13;5069480;28;19956;-54
2021/11/15 11:09:35;;;;;;;;;;;;;;;15.84;100.00;102557.66;5049404;28;19917;-51
2021/11/15 11:12:08;;;;;;;;;;;;;;;15.46;100.00;102540.56;5053948;28;19916;-51
2021/11/15 11:14:33;;;;;;;;;;;;;;;15.67;100.00;102535.41;5053176;28;19917;-54
2021/11/15 11:17:02;;;;;;;;;;;;;;;15.52;100.00;102538.97;5053800;28;20019;-54
2021/11/15 11:22:11;;;;;;;;;;;;;;;15.46;100.00;102528.94;5053335;28;19924;-53
2021/11/15 11:25:07;;;;;;;;;;;;;;;15.72;100.00;102527.63;5052581;28;19917;-52
2021/11/15 11:27:34;;;;;;;;;;;;;;;15.62;100.00;102517.13;5071171;28;19924;-52
2021/11/15 11:29:59;;;;;;;;;;;;;;;15.76;100.00;102518.94;5056039;28;20257;-50
2021/11/15 11:32:26;;;;;;;;;;;;;;;15.69;100.00;102522.59;5056615;28;19927;-51
2021/11/15 11:34:55;;;;;;;;;;;;;;;15.61;100.00;102527.06;5056613;28;19920;-53
2021/11/15 11:37:23;;;;;;;;;;;;;;;15.73;100.00;102518.50;5056448;28;19924;-50
2021/11/15 11:39:49;;;;;;;;;;;;;;;15.75;100.00;102516.44;5057073;28;19923;-53
2021/11/15 11:42:15;;;;;;;;;;;;;;;15.94;100.00;102515.03;5057047;28;19917;-51
2021/11/15 11:44:41;;;;;;;;;;;;;;;15.80;100.00;102514.00;5056779;28;20422;-51
2021/11/15 11:47:07;;;;;;;;;;;;;;;15.77;100.00;102506.31;5056846;28;19947;-51
2021/11/15 11:49:34;;;;;;;;;;;;;;;15.71;100.00;102515.16;5056534;28;19959;-52
2021/11/15 11:52:00;;;;;;;;;;;;;;;15.54;100.00;102504.56;5056404;28;19927;-49
2021/11/15 11:54:28;;;;;;;;;;;;;;;15.76;100.00;102499.25;5055897;28;19917;-47
2021/11/15 11:56:58;;;;;;;;;;;;;;;15.38;100.00;102504.75;5054786;28;19919;-53
2021/11/15 11:59:25;;;;;;;;;;;;;;;15.84;100.00;102504.50;5055953;28;19917;-49
2021/11/15 12:02:07;;;;;;;;;;;;;;;15.99;100.00;102509.06;5071273;28;20384;-49
2021/11/15 12:04:33;;;;;;;;;;;;;;;15.97;100.00;102508.44;5055909;28;19955;-51
2021/11/15 12:06:58;;;;;;;;;;;;;;;15.70;100.00;102508.91;5055943;28;19936;-52
2021/11/15 12:09:38;;;;;;;;;;;;;;;15.90;100.00;102509.16;5056496;28;19928;-53
2021/11/15 12:12:04;;;;;;;;;;;;;;;15.62;100.00;102507.16;5087816;28;19963;-54
2021/11/15 12:14:37;;;;;;;;;;;;;;;15.63;100.00;102506.13;5056256;28;19927;-51
2021/11/15 12:17:02;;;;;;;;;;;;;;;15.84;100.00;102504.50;5055871;28;19923;-53
2021/11/15 12:19:47;;;;;;;;;;;;;;;15.95;100.00;102513.19;5071043;28;19916;-53
2021/11/15 12:22:15;;;;;;;;;;;;;;;15.76;100.00;102497.34;5055337;28;19963;-50
2021/11/15 12:25:00;;;;;;;;;;;;;;;15.93;100.00;102499.06;5054067;28;19912;-49
2021/11/15 12:27:43;;;;;;;;;;;;;;;15.83;100.00;102496.63;5055594;28;19916;-49